createdAt,value
2018-09-04T00:02:04.431Z,2.60
2018-09-04T00:04:33.654Z,2.20
2018-09-04T00:07:02.262Z,2.50
2018-09-04T00:09:30.882Z,2.47
2018-09-04T00:11:59.550Z,2.53
2018-09-04T00:14:28.230Z,2.70
2018-09-04T00:16:56.833Z,2.73
2018-09-04T00:19:25.422Z,2.63
2018-09-04T00:21:54.025Z,2.47
2018-09-04T00:24:22.622Z,2.47
2018-09-04T00:26:51.263Z,2.30
2018-09-04T00:29:19.926Z,2.40
2018-09-04T00:31:48.474Z,2.80
2018-09-04T00:34:17.111Z,2.40
2018-09-04T00:36:45.709Z,2.37
2018-09-04T00:39:14.330Z,3.13
2018-09-04T00:41:42.914Z,2.40
2018-09-04T00:44:11.519Z,2.53
2018-09-04T00:46:40.166Z,2.60
2018-09-04T00:49:08.732Z,2.53
2018-09-04T00:51:37.350Z,2.93
2018-09-04T00:54:06.000Z,2.70
2018-09-04T00:56:34.662Z,2.63
2018-09-04T00:59:03.361Z,2.20
2018-09-04T01:01:31.953Z,2.60
2018-09-04T01:04:00.521Z,2.70
2018-09-04T01:06:29.165Z,2.93
2018-09-04T01:08:57.813Z,2.30
2018-09-04T01:11:26.374Z,2.30
2018-09-04T01:13:54.993Z,2.40
2018-09-04T01:16:23.597Z,2.77
2018-09-04T01:18:52.210Z,2.10
2018-09-04T01:21:20.814Z,2.60
2018-09-04T01:23:49.457Z,2.57
2018-09-04T01:26:18.188Z,2.13
2018-09-04T01:28:46.865Z,2.53
2018-09-04T01:31:15.406Z,2.63
2018-09-04T01:33:44.090Z,2.70
2018-09-04T01:36:12.677Z,2.77
2018-09-04T01:38:41.343Z,2.27
2018-09-04T01:41:09.917Z,2.67
2018-09-04T01:43:38.474Z,3.60
2018-09-04T01:46:07.049Z,2.90
2018-09-04T01:48:35.618Z,2.10
2018-09-04T01:51:04.326Z,2.20
2018-09-04T01:53:32.901Z,2.60
2018-09-04T01:56:01.487Z,2.37
2018-09-04T01:58:30.170Z,2.80
2018-09-04T02:00:58.804Z,2.40
2018-09-04T02:03:27.407Z,2.50
2018-09-04T02:05:55.977Z,2.23
2018-09-04T02:08:24.568Z,2.50
2018-09-04T02:10:53.194Z,2.67
2018-09-04T02:13:21.841Z,2.20
2018-09-04T02:15:50.506Z,2.57
2018-09-04T02:18:19.177Z,2.73
2018-09-04T02:20:47.794Z,2.23
2018-09-04T02:23:16.468Z,2.10
2018-09-04T02:25:45.130Z,2.40
2018-09-04T02:28:13.656Z,2.73
2018-09-04T02:30:42.317Z,2.13
2018-09-04T02:33:11.044Z,2.33
2018-09-04T02:35:39.568Z,2.40
2018-09-04T02:38:08.603Z,2.60
2018-09-04T02:40:37.737Z,2.37
2018-09-04T02:43:06.613Z,2.33
2018-09-04T02:45:35.215Z,2.17
2018-09-04T02:48:03.902Z,2.43
2018-09-04T02:50:36.840Z,2.03
2018-09-04T02:53:05.515Z,2.20
2018-09-04T02:55:34.113Z,2.43
2018-09-04T02:58:02.668Z,2.30
2018-09-04T03:00:31.286Z,2.30
2018-09-04T03:02:59.910Z,2.53
2018-09-04T03:05:28.503Z,2.50
2018-09-04T03:07:57.082Z,2.47
2018-09-04T03:10:25.647Z,2.13
2018-09-04T03:12:54.271Z,2.67
2018-09-04T03:15:22.849Z,2.60
2018-09-04T03:17:51.406Z,2.20
2018-09-04T03:20:20.084Z,2.50
2018-09-04T03:22:48.632Z,2.20
2018-09-04T03:25:17.249Z,2.37
2018-09-04T03:27:45.878Z,2.53
2018-09-04T03:30:14.458Z,2.30
2018-09-04T03:32:43.041Z,2.20
2018-09-04T03:35:11.646Z,2.30
2018-09-04T03:37:40.270Z,1.90
2018-09-04T03:40:08.865Z,2.33
2018-09-04T03:42:37.558Z,2.00
2018-09-04T03:45:06.918Z,2.60
2018-09-04T03:47:35.495Z,1.80
2018-09-04T03:50:04.125Z,2.40
2018-09-04T03:52:32.766Z,2.80
2018-09-04T03:55:01.369Z,2.33
2018-09-04T03:57:29.992Z,1.97
2018-09-04T03:59:58.654Z,2.10
2018-09-04T04:02:27.352Z,2.43
2018-09-04T04:04:56.004Z,2.27
2018-09-04T04:07:24.605Z,2.20
2018-09-04T04:09:53.403Z,2.10
2018-09-04T04:12:22.098Z,2.67
2018-09-04T04:14:50.698Z,2.60
2018-09-04T04:17:19.351Z,2.43
2018-09-04T04:19:48.061Z,2.27
2018-09-04T04:22:16.701Z,1.93
2018-09-04T04:24:45.310Z,2.30
2018-09-04T04:27:13.929Z,2.50
2018-09-04T04:29:42.567Z,2.33
2018-09-04T04:32:11.164Z,2.30
2018-09-04T04:34:39.736Z,2.10
2018-09-04T04:37:08.415Z,2.43
2018-09-04T04:39:37.014Z,2.40
2018-09-04T04:42:05.699Z,2.03
2018-09-04T04:44:34.438Z,2.10
2018-09-04T04:47:03.069Z,2.10
2018-09-04T04:49:31.701Z,2.27
2018-09-04T04:52:00.343Z,2.17
2018-09-04T04:54:28.922Z,1.93
2018-09-04T04:56:57.602Z,2.00
2018-09-04T04:59:26.245Z,2.37
2018-09-04T05:01:54.829Z,2.50
2018-09-04T05:04:23.552Z,2.30
2018-09-04T05:06:52.358Z,2.00
2018-09-04T05:09:21.145Z,2.17
2018-09-04T05:11:49.748Z,2.37
2018-09-04T05:14:18.384Z,2.10
2018-09-04T05:16:47.033Z,1.97
2018-09-04T05:19:15.668Z,2.40
2018-09-04T05:21:44.337Z,2.33
2018-09-04T05:24:12.915Z,2.17
2018-09-04T05:26:41.508Z,2.00
2018-09-04T05:29:10.121Z,2.40
2018-09-04T05:31:43.715Z,2.60
2018-09-04T05:34:12.484Z,3.03
2018-09-04T05:36:41.174Z,2.60
2018-09-04T05:39:10.716Z,2.37
2018-09-04T05:41:39.399Z,2.30
2018-09-04T05:44:08.206Z,2.30
2018-09-04T05:46:44.616Z,2.03
2018-09-04T05:49:14.931Z,2.07
2018-09-04T05:51:43.661Z,2.10
2018-09-04T05:54:12.391Z,2.10
2018-09-04T05:56:41.033Z,2.07
2018-09-04T05:59:09.789Z,2.30
2018-09-04T06:01:38.608Z,2.30
2018-09-04T06:04:07.392Z,1.93
2018-09-04T06:06:36.049Z,2.23
2018-09-04T06:09:05.391Z,3.77
2018-09-04T06:11:34.086Z,2.47
2018-09-04T06:14:02.793Z,2.20
2018-09-04T06:16:31.787Z,2.10
2018-09-04T06:19:00.443Z,2.20
2018-09-04T06:21:29.078Z,2.00
2018-09-04T06:23:57.762Z,1.97
2018-09-04T06:26:26.386Z,2.40
2018-09-04T06:28:54.979Z,2.00
2018-09-04T06:31:23.623Z,2.00
2018-09-04T06:33:52.419Z,2.43
2018-09-04T06:36:21.334Z,1.90
2018-09-04T06:38:50.053Z,2.47
2018-09-04T06:41:18.675Z,2.27
2018-09-04T06:43:47.363Z,2.00
2018-09-04T06:46:15.999Z,2.53
2018-09-04T06:48:44.611Z,2.20
2018-09-04T06:51:13.198Z,2.27
2018-09-04T06:53:41.753Z,1.73
2018-09-04T06:56:10.369Z,2.00
2018-09-04T06:58:38.964Z,2.27
2018-09-04T07:01:07.629Z,1.93
2018-09-04T07:03:36.299Z,1.70
2018-09-04T07:06:05.269Z,1.60
2018-09-04T07:08:33.917Z,1.80
2018-09-04T07:11:02.586Z,2.30
2018-09-04T07:13:31.249Z,2.10
2018-09-04T07:15:59.854Z,1.50
2018-09-04T07:18:28.478Z,2.20
2018-09-04T07:20:57.130Z,1.87
2018-09-04T07:23:25.925Z,2.17
2018-09-04T07:25:54.520Z,2.10
2018-09-04T07:28:23.330Z,1.80
2018-09-04T07:30:52.016Z,1.83
2018-09-04T07:33:20.764Z,2.17
2018-09-04T07:35:49.385Z,2.40
2018-09-04T07:38:18.041Z,2.37
2018-09-04T07:40:46.681Z,2.20
2018-09-04T07:43:16.112Z,2.30
2018-09-04T07:45:45.044Z,1.90
2018-09-04T07:48:13.957Z,2.20
2018-09-04T07:50:42.636Z,2.27
2018-09-04T07:53:11.251Z,1.50
2018-09-04T07:55:39.850Z,2.20
2018-09-04T07:58:08.513Z,2.10
2018-09-04T08:00:37.173Z,1.90
2018-09-04T08:03:05.884Z,1.80
2018-09-04T08:05:34.535Z,2.33
2018-09-04T08:08:03.227Z,2.73
2018-09-04T08:10:35.445Z,1.90
2018-09-04T08:13:06.266Z,2.17
2018-09-04T08:15:35.221Z,1.90
2018-09-04T08:18:04.231Z,2.40
2018-09-04T08:20:32.980Z,1.93
2018-09-04T08:23:01.517Z,2.37
2018-09-04T08:25:30.187Z,2.43
2018-09-04T08:27:58.852Z,2.03
2018-09-04T08:30:27.497Z,2.33
2018-09-04T08:32:56.145Z,1.97
2018-09-04T08:35:24.692Z,2.23
2018-09-04T08:37:58.559Z,1.80
2018-09-04T08:40:27.261Z,1.80
2018-09-04T08:42:55.931Z,2.20
2018-09-04T08:45:24.561Z,2.23
2018-09-04T08:47:53.201Z,2.13
2018-09-04T08:50:21.788Z,2.20
2018-09-04T08:52:50.433Z,1.97
2018-09-04T08:55:19.138Z,2.30
2018-09-04T08:57:47.758Z,2.00
2018-09-04T09:00:16.389Z,1.90
2018-09-04T09:02:45.018Z,1.90
2018-09-04T09:05:13.655Z,2.17
2018-09-04T09:07:42.253Z,1.77
2018-09-04T09:10:10.930Z,2.10
2018-09-04T09:12:39.607Z,2.10
2018-09-04T09:15:08.225Z,2.30
2018-09-04T09:17:36.828Z,2.67
2018-09-04T09:20:05.598Z,1.87
2018-09-04T09:22:34.269Z,2.20
2018-09-04T09:25:02.913Z,1.97
2018-09-04T09:27:31.627Z,2.50
2018-09-04T09:30:00.281Z,1.83
2018-09-04T09:32:28.935Z,2.10
2018-09-04T09:34:57.514Z,1.93
2018-09-04T09:37:26.158Z,2.23
2018-09-04T09:39:54.823Z,2.00
2018-09-04T09:42:23.496Z,2.40
2018-09-04T09:44:52.121Z,2.00
2018-09-04T09:47:20.739Z,2.40
2018-09-04T09:49:49.430Z,2.20
2018-09-04T09:52:18.135Z,2.70
2018-09-04T09:54:46.806Z,2.60
2018-09-04T09:57:15.514Z,2.20
2018-09-04T09:59:44.094Z,2.07
2018-09-04T10:02:17.809Z,2.10
2018-09-04T10:04:46.426Z,1.87
2018-09-04T10:07:15.137Z,2.10
2018-09-04T10:09:43.790Z,2.20
2018-09-04T10:12:12.481Z,2.30
2018-09-04T10:14:41.118Z,2.50
2018-09-04T10:17:10.069Z,2.33
2018-09-04T10:19:38.679Z,2.53
2018-09-04T10:22:07.482Z,2.30
2018-09-04T10:24:36.119Z,2.03
2018-09-04T10:27:04.829Z,2.33
2018-09-04T10:29:33.425Z,2.00
2018-09-04T10:32:02.185Z,2.20
2018-09-04T10:34:30.851Z,1.90
2018-09-04T10:36:59.485Z,2.50
2018-09-04T10:39:33.325Z,2.60
2018-09-04T10:42:01.897Z,2.40
2018-09-04T10:44:32.524Z,2.70
2018-09-04T10:47:01.739Z,2.20
2018-09-04T10:49:30.386Z,1.87
2018-09-04T10:51:59.021Z,2.30
2018-09-04T10:54:27.714Z,2.13
2018-09-04T10:56:56.402Z,2.00
2018-09-04T10:59:24.968Z,2.23
2018-09-04T11:01:53.675Z,2.17
2018-09-04T11:04:22.252Z,2.20
2018-09-04T11:06:50.990Z,2.00
2018-09-04T11:09:19.699Z,2.20
2018-09-04T11:11:48.277Z,2.10
2018-09-04T11:14:17.065Z,2.40
2018-09-04T11:16:45.650Z,2.03
2018-09-04T11:19:14.329Z,2.20
2018-09-04T11:21:42.931Z,2.40
2018-09-04T11:24:11.539Z,2.40
2018-09-04T11:26:40.226Z,2.47
2018-09-04T11:29:09.853Z,2.17
2018-09-04T11:31:38.497Z,2.10
2018-09-04T11:34:07.115Z,2.33
2018-09-04T11:36:35.726Z,2.00
2018-09-04T11:39:05.069Z,2.80
2018-09-04T11:41:33.693Z,2.60
2018-09-04T11:44:02.333Z,2.10
2018-09-04T11:46:31.005Z,2.00
2018-09-04T11:48:59.647Z,2.17
2018-09-04T11:51:28.293Z,2.47
2018-09-04T11:53:56.955Z,2.00
2018-09-04T11:56:25.599Z,2.30
2018-09-04T11:58:54.250Z,2.03
2018-09-04T12:01:26.772Z,2.50
2018-09-04T12:03:55.582Z,2.60
2018-09-04T12:06:24.345Z,2.40
2018-09-04T12:08:53.054Z,2.43
2018-09-04T12:11:21.666Z,2.43
2018-09-04T12:13:50.309Z,7.87
2018-09-04T12:16:19.006Z,3.20
2018-09-04T12:18:47.744Z,2.00
2018-09-04T12:21:16.590Z,2.30
2018-09-04T12:23:45.305Z,2.10
2018-09-04T12:26:13.982Z,1.93
2018-09-04T12:28:42.615Z,2.17
2018-09-04T12:31:11.338Z,2.17
2018-09-04T12:33:39.967Z,1.90
2018-09-04T12:36:08.673Z,2.47
2018-09-04T12:38:38.846Z,2.57
2018-09-04T12:41:12.886Z,2.30
2018-09-04T12:43:41.554Z,1.90
2018-09-04T12:46:10.184Z,2.23
2018-09-04T12:48:38.933Z,2.50
2018-09-04T12:51:07.674Z,2.10
2018-09-04T12:53:36.553Z,2.20
2018-09-04T12:56:05.257Z,2.43
2018-09-04T12:58:33.861Z,2.60
2018-09-04T13:01:02.480Z,2.30
2018-09-04T13:03:31.101Z,2.13
2018-09-04T13:06:00.252Z,2.10
2018-09-04T13:08:30.389Z,2.10
2018-09-04T13:10:59.071Z,2.60
2018-09-04T13:13:28.025Z,2.30
2018-09-04T13:15:58.159Z,2.40
2018-09-04T13:18:27.716Z,2.90
2018-09-04T13:21:01.265Z,3.30
2018-09-04T13:23:30.141Z,3.10
2018-09-04T13:25:58.804Z,3.60
2018-09-04T13:28:27.970Z,3.30
2018-09-04T13:30:56.610Z,3.07
2018-09-04T13:33:25.184Z,3.33
2018-09-04T13:35:53.829Z,3.33
2018-09-04T13:38:22.475Z,3.57
2018-09-04T13:40:55.214Z,3.17
2018-09-04T13:43:23.825Z,3.77
2018-09-04T13:45:52.474Z,2.87
2018-09-04T13:48:25.277Z,3.70
2018-09-04T13:50:53.935Z,2.90
2018-09-04T13:53:22.548Z,3.07
2018-09-04T13:55:51.306Z,3.03
2018-09-04T13:58:54.699Z,3.83
2018-09-04T14:01:23.372Z,4.60
2018-09-04T14:03:52.096Z,4.83
2018-09-04T14:06:20.803Z,4.47
2018-09-04T14:08:49.569Z,4.63
2018-09-04T14:11:18.253Z,4.40
2018-09-04T14:13:46.976Z,4.90
2018-09-04T14:16:17.878Z,4.50
2018-09-04T14:18:46.560Z,4.50
2018-09-04T14:21:15.203Z,4.20
2018-09-04T14:23:43.869Z,4.50
2018-09-04T14:26:12.556Z,4.10
2018-09-04T14:28:41.578Z,3.83
2018-09-04T14:31:10.023Z,4.00
2018-09-04T14:33:38.760Z,4.30
2018-09-04T14:36:07.512Z,4.73
2018-09-04T14:38:36.176Z,3.60
2018-09-04T14:41:05.293Z,3.63
2018-09-04T14:43:34.013Z,3.20
2018-09-04T14:46:02.827Z,3.23
2018-09-04T14:48:31.504Z,2.80
2018-09-04T14:51:00.172Z,3.33
2018-09-04T14:53:28.887Z,3.47
2018-09-04T14:55:58.262Z,3.67
2018-09-04T14:58:26.937Z,3.30
2018-09-04T15:00:55.631Z,3.37
2018-09-04T15:03:24.400Z,3.77
2018-09-04T15:05:53.894Z,3.77
2018-09-04T15:08:22.533Z,4.33
2018-09-04T15:10:51.211Z,3.53
2018-09-04T15:13:19.983Z,3.63
2018-09-04T15:15:48.699Z,3.90
2018-09-04T15:18:17.322Z,4.13
2018-09-04T15:20:46.001Z,5.53
2018-09-04T15:23:14.636Z,5.60
2018-09-04T15:25:43.365Z,5.83
2018-09-04T15:28:12.001Z,5.10
2018-09-04T15:30:40.663Z,5.00
2018-09-04T15:33:09.990Z,5.40
2018-09-04T15:35:38.956Z,5.87
2018-09-04T15:38:07.812Z,4.33
2018-09-04T15:40:36.566Z,3.80
2018-09-04T15:43:05.340Z,3.70
2018-09-04T15:45:34.209Z,4.90
2018-09-04T15:48:02.920Z,4.57
2018-09-04T15:50:31.706Z,5.70
2018-09-04T15:53:00.416Z,5.20
2018-09-04T15:55:29.160Z,4.47
2018-09-04T15:57:58.223Z,4.10
2018-09-04T16:00:26.804Z,5.00
2018-09-04T16:02:56.206Z,4.57
2018-09-04T16:05:25.035Z,4.50
2018-09-04T16:07:53.764Z,4.00
2018-09-04T16:10:22.696Z,5.53
2018-09-04T16:12:51.359Z,4.90
2018-09-04T16:15:20.086Z,4.40
2018-09-04T16:17:49.034Z,4.43
2018-09-04T16:20:17.775Z,3.87
2018-09-04T16:22:46.510Z,3.90
2018-09-04T16:25:15.260Z,3.70
2018-09-04T16:27:44.035Z,3.67
2018-09-04T16:30:12.768Z,3.00
2018-09-04T16:32:41.488Z,2.97
2018-09-04T16:35:10.513Z,3.23
2018-09-04T16:37:39.175Z,2.87
2018-09-04T16:40:07.923Z,1.83
2018-09-04T16:42:36.674Z,2.40
2018-09-04T16:45:05.660Z,2.40
2018-09-04T16:47:34.372Z,2.67
2018-09-04T16:50:03.072Z,2.90
2018-09-04T16:52:31.796Z,2.60
2018-09-04T16:55:00.571Z,2.70
2018-09-04T16:57:29.383Z,2.60
2018-09-04T16:59:58.041Z,2.70
2018-09-04T17:02:26.788Z,3.00
2018-09-04T17:04:55.525Z,2.40
2018-09-04T17:07:24.216Z,3.10
2018-09-04T17:09:53.034Z,2.70
2018-09-04T17:12:21.896Z,3.33
2018-09-04T17:14:50.604Z,2.77
2018-09-04T17:17:19.691Z,3.60
2018-09-04T17:19:48.469Z,3.97
2018-09-04T17:22:17.272Z,3.67
2018-09-04T17:24:46.041Z,3.43
2018-09-04T17:27:14.839Z,5.10
2018-09-04T17:29:43.492Z,4.20
2018-09-04T17:32:12.212Z,3.80
2018-09-04T17:34:41.475Z,4.10
2018-09-04T17:37:10.156Z,4.63
2018-09-04T17:39:38.820Z,5.63
2018-09-04T17:42:07.504Z,5.23
2018-09-04T17:44:36.231Z,5.57
2018-09-04T17:47:04.971Z,5.70
2018-09-04T17:49:33.713Z,6.10
2018-09-04T17:52:03.077Z,6.83
2018-09-04T17:54:31.805Z,6.47
2018-09-04T17:57:00.555Z,5.63
2018-09-04T17:59:29.448Z,5.80
2018-09-04T18:01:58.376Z,5.40
2018-09-04T18:04:27.083Z,6.00
2018-09-04T18:06:55.873Z,5.90
2018-09-04T18:09:24.638Z,5.63
2018-09-04T18:11:53.382Z,5.43
2018-09-04T18:14:22.350Z,5.47
2018-09-04T18:16:51.178Z,4.80
2018-09-04T18:19:20.420Z,4.97
2018-09-04T18:21:49.245Z,4.67
2018-09-04T18:24:18.090Z,4.40
2018-09-04T18:26:46.921Z,4.53
2018-09-04T18:29:15.801Z,4.73
2018-09-04T18:31:44.603Z,5.43
2018-09-04T18:34:13.297Z,5.47
2018-09-04T18:36:41.992Z,6.00
2018-09-04T18:39:10.707Z,5.80
2018-09-04T18:41:39.412Z,5.80
2018-09-04T18:44:08.108Z,6.10
2018-09-04T18:46:36.827Z,5.77
2018-09-04T18:49:05.735Z,6.20
2018-09-04T18:51:34.306Z,6.03
2018-09-04T18:54:02.964Z,6.40
2018-09-04T18:56:31.652Z,6.33
2018-09-04T18:59:00.321Z,6.93
2018-09-04T19:01:29.553Z,5.70
2018-09-04T19:03:58.821Z,6.03
2018-09-04T19:06:31.587Z,5.87
2018-09-04T19:09:00.414Z,5.90
2018-09-04T19:11:29.409Z,6.30
2018-09-04T19:13:58.218Z,5.33
2018-09-04T19:16:26.913Z,5.47
2018-09-04T19:18:55.570Z,5.53
2018-09-04T19:21:24.360Z,5.10
2018-09-04T19:23:53.537Z,4.70
2018-09-04T19:26:22.240Z,5.47
2018-09-04T19:28:50.945Z,5.37
2018-09-04T19:31:19.728Z,4.87
2018-09-04T19:33:48.454Z,5.27
2018-09-04T19:36:17.257Z,5.80
2018-09-04T19:38:45.949Z,5.90
2018-09-04T19:41:14.653Z,5.60
2018-09-04T19:43:43.363Z,6.60
2018-09-04T19:46:12.044Z,6.97
2018-09-04T19:48:40.715Z,6.37
2018-09-04T19:51:09.414Z,6.87
2018-09-04T19:53:38.156Z,6.63
2018-09-04T19:56:07.000Z,6.67
2018-09-04T19:58:35.691Z,6.03
2018-09-04T20:01:04.556Z,6.43
2018-09-04T20:03:33.320Z,6.00
2018-09-04T20:06:02.017Z,6.57
2018-09-04T20:08:30.814Z,6.10
2018-09-04T20:10:59.768Z,6.27
2018-09-04T20:13:28.620Z,6.07
2018-09-04T20:15:57.408Z,5.80
2018-09-04T20:18:26.283Z,5.50
2018-09-04T20:20:55.126Z,6.00
2018-09-04T20:23:24.149Z,6.20
2018-09-04T20:25:52.974Z,6.20
2018-09-04T20:28:21.895Z,6.13
2018-09-04T20:30:50.700Z,6.40
2018-09-04T20:33:19.650Z,6.20
2018-09-04T20:35:48.478Z,7.03
2018-09-04T20:38:17.583Z,6.77
2018-09-04T20:40:46.541Z,6.47
2018-09-04T20:43:15.235Z,6.60
2018-09-04T20:45:43.962Z,6.13
2018-09-04T20:48:12.666Z,6.53
2018-09-04T20:50:41.475Z,6.23
2018-09-04T20:53:10.271Z,6.30
2018-09-04T20:55:39.033Z,6.13
2018-09-04T20:58:18.657Z,6.50
2018-09-04T21:00:58.383Z,6.70
2018-09-04T21:03:38.202Z,6.03
2018-09-04T21:06:17.854Z,5.77
2018-09-04T21:10:59.700Z,6.20
2018-09-04T21:13:28.385Z,6.50
2018-09-04T21:15:57.140Z,7.03
2018-09-04T21:18:25.881Z,6.80
2018-09-04T21:20:54.690Z,6.33
2018-09-04T21:23:23.620Z,6.57
2018-09-04T21:25:52.351Z,6.80
2018-09-04T21:28:21.008Z,6.47
2018-09-04T21:30:49.719Z,6.70
2018-09-04T21:33:18.388Z,6.33
2018-09-04T21:35:47.049Z,6.60
2018-09-04T21:38:15.819Z,6.90
2018-09-04T21:40:44.461Z,6.30
2018-09-04T21:43:13.101Z,6.00
2018-09-04T21:45:41.760Z,6.10
2018-09-04T21:48:10.448Z,5.87
2018-09-04T21:50:39.131Z,5.37
2018-09-04T21:53:07.868Z,5.47
2018-09-04T21:55:36.611Z,5.37
2018-09-04T21:58:05.520Z,5.40
2018-09-04T22:00:34.259Z,5.17
2018-09-04T22:03:02.952Z,4.50
2018-09-04T22:05:31.612Z,4.80
2018-09-04T22:08:00.987Z,4.63
2018-09-04T22:10:29.643Z,4.70
2018-09-04T22:12:58.307Z,4.30
2018-09-04T22:15:27.003Z,4.67
2018-09-04T22:17:55.676Z,4.67
2018-09-04T22:20:24.548Z,4.57
2018-09-04T22:22:54.029Z,4.60
2018-09-04T22:25:22.789Z,4.53
2018-09-04T22:27:51.506Z,4.33
2018-09-04T22:30:20.344Z,4.40
2018-09-04T22:32:49.024Z,3.70
2018-09-04T22:35:17.691Z,4.50
2018-09-04T22:37:46.461Z,4.20
2018-09-04T22:40:15.140Z,4.17
2018-09-04T22:42:43.772Z,4.50
2018-09-04T22:45:12.476Z,4.70
2018-09-04T22:47:42.044Z,4.70
2018-09-04T22:50:15.832Z,4.63
2018-09-04T22:52:44.508Z,4.63
2018-09-04T22:55:14.044Z,4.57
2018-09-04T22:57:43.680Z,4.60
2018-09-04T23:00:13.458Z,4.07
2018-09-04T23:02:42.177Z,3.50
2018-09-04T23:05:11.012Z,3.53
2018-09-04T23:07:40.308Z,4.10
2018-09-04T23:10:09.116Z,3.40
2018-09-04T23:12:37.778Z,3.83
2018-09-04T23:15:06.537Z,3.97
2018-09-04T23:17:35.227Z,4.60
2018-09-04T23:20:04.020Z,4.70
2018-09-04T23:22:32.692Z,3.97
2018-09-04T23:25:01.358Z,4.23
2018-09-04T23:27:30.057Z,3.90
2018-09-04T23:29:58.748Z,3.53
2018-09-04T23:32:27.432Z,3.90
2018-09-04T23:34:56.124Z,3.87
2018-09-04T23:37:24.820Z,3.90
2018-09-04T23:39:53.518Z,4.07
2018-09-04T23:42:22.280Z,4.43
2018-09-04T23:44:50.956Z,5.40
2018-09-04T23:47:19.644Z,5.40
2018-09-04T23:49:48.303Z,4.93
2018-09-04T23:52:16.992Z,4.87
2018-09-04T23:54:46.029Z,4.30
2018-09-04T23:57:14.725Z,4.27
2018-09-04T23:59:43.388Z,4.17
